sensor_id;sensor_type;location;lat;lon;timestamp;P1;durP1;ratioP1;P2;durP2;ratioP2
68108;SDS011;54893;49.864;19.084;2023-03-23T00:03:18;9.75;;;5.22;;
68108;SDS011;54893;49.864;19.084;2023-03-23T00:08:19;9.23;;;4.37;;
68108;SDS011;54893;49.864;19.084;2023-03-23T00:13:24;9.05;;;4.80;;
68108;SDS011;54893;49.864;19.084;2023-03-23T00:18:25;10.40;;;5.20;;
68108;SDS011;54893;49.864;19.084;2023-03-23T00:23:26;10.33;;;4.60;;
68108;SDS011;54893;49.864;19.084;2023-03-23T00:28:26;10.33;;;4.50;;
68108;SDS011;54893;49.864;19.084;2023-03-23T00:33:27;10.55;;;4.57;;
68108;SDS011;54893;49.864;19.084;2023-03-23T00:38:30;8.40;;;4.20;;
68108;SDS011;54893;49.864;19.084;2023-03-23T00:43:30;10.07;;;4.57;;
68108;SDS011;54893;49.864;19.084;2023-03-23T00:48:36;8.90;;;4.57;;
68108;SDS011;54893;49.864;19.084;2023-03-23T00:53:44;9.60;;;4.75;;
68108;SDS011;54893;49.864;19.084;2023-03-23T00:58:45;8.15;;;4.60;;
68108;SDS011;54893;49.864;19.084;2023-03-23T01:03:45;9.20;;;4.93;;
68108;SDS011;54893;49.864;19.084;2023-03-23T01:08:46;10.57;;;5.03;;
68108;SDS011;54893;49.864;19.084;2023-03-23T01:13:46;11.10;;;4.57;;
68108;SDS011;54893;49.864;19.084;2023-03-23T01:18:47;10.47;;;4.90;;
68108;SDS011;54893;49.864;19.084;2023-03-23T01:23:48;10.20;;;4.45;;
68108;SDS011;54893;49.864;19.084;2023-03-23T01:28:48;11.50;;;5.00;;
68108;SDS011;54893;49.864;19.084;2023-03-23T01:33:49;9.00;;;4.40;;
68108;SDS011;54893;49.864;19.084;2023-03-23T01:38:50;10.10;;;4.37;;
68108;SDS011;54893;49.864;19.084;2023-03-23T01:44:03;10.17;;;5.03;;
68108;SDS011;54893;49.864;19.084;2023-03-23T01:49:07;10.80;;;4.88;;
68108;SDS011;54893;49.864;19.084;2023-03-23T01:54:11;10.63;;;5.82;;
68108;SDS011;54893;49.864;19.084;2023-03-23T01:59:14;12.18;;;6.13;;
68108;SDS011;54893;49.864;19.084;2023-03-23T02:04:15;11.98;;;5.68;;
68108;SDS011;54893;49.864;19.084;2023-03-23T02:09:17;13.33;;;6.27;;
68108;SDS011;54893;49.864;19.084;2023-03-23T02:14:17;13.95;;;6.53;;
68108;SDS011;54893;49.864;19.084;2023-03-23T02:24:45;16.65;;;6.85;;
68108;SDS011;54893;49.864;19.084;2023-03-23T02:46:04;10.10;;;5.10;;
68108;SDS011;54893;49.864;19.084;2023-03-23T02:51:08;14.75;;;6.10;;
68108;SDS011;54893;49.864;19.084;2023-03-23T02:56:11;12.53;;;6.00;;
68108;SDS011;54893;49.864;19.084;2023-03-23T03:12:13;12.98;;;5.88;;
68108;SDS011;54893;49.864;19.084;2023-03-23T03:17:46;11.85;;;5.25;;
68108;SDS011;54893;49.864;19.084;2023-03-23T03:23:15;11.23;;;5.30;;
68108;SDS011;54893;49.864;19.084;2023-03-23T03:28:17;13.30;;;5.57;;
68108;SDS011;54893;49.864;19.084;2023-03-23T03:33:22;13.40;;;6.00;;
68108;SDS011;54893;49.864;19.084;2023-03-23T03:38:25;12.48;;;5.68;;
68108;SDS011;54893;49.864;19.084;2023-03-23T03:43:26;11.73;;;5.40;;
68108;SDS011;54893;49.864;19.084;2023-03-23T03:48:27;12.97;;;5.67;;
68108;SDS011;54893;49.864;19.084;2023-03-23T03:53:27;10.27;;;5.17;;
68108;SDS011;54893;49.864;19.084;2023-03-23T03:58:28;9.65;;;4.80;;
68108;SDS011;54893;49.864;19.084;2023-03-23T04:03:31;10.43;;;4.70;;
68108;SDS011;54893;49.864;19.084;2023-03-23T04:08:31;12.73;;;5.33;;
68108;SDS011;54893;49.864;19.084;2023-03-23T04:13:32;11.23;;;5.03;;
68108;SDS011;54893;49.864;19.084;2023-03-23T04:18:33;12.30;;;5.43;;
68108;SDS011;54893;49.864;19.084;2023-03-23T04:23:34;9.25;;;4.80;;
68108;SDS011;54893;49.864;19.084;2023-03-23T04:28:35;9.23;;;4.77;;
68108;SDS011;54893;49.864;19.084;2023-03-23T04:33:35;10.13;;;4.70;;
68108;SDS011;54893;49.864;19.084;2023-03-23T04:38:37;8.32;;;4.47;;
68108;SDS011;54893;49.864;19.084;2023-03-23T04:43:37;6.80;;;3.87;;
68108;SDS011;54893;49.864;19.084;2023-03-23T04:48:41;8.98;;;4.70;;
68108;SDS011;54893;49.864;19.084;2023-03-23T04:53:41;10.07;;;4.53;;
68108;SDS011;54893;49.864;19.084;2023-03-23T04:58:42;8.27;;;4.60;;
68108;SDS011;54893;49.864;19.084;2023-03-23T05:03:44;10.63;;;5.00;;
68108;SDS011;54893;49.864;19.084;2023-03-23T05:08:44;8.23;;;4.53;;
68108;SDS011;54893;49.864;19.084;2023-03-23T05:13:45;10.68;;;4.65;;
68108;SDS011;54893;49.864;19.084;2023-03-23T05:18:45;9.43;;;4.53;;
68108;SDS011;54893;49.864;19.084;2023-03-23T05:23:46;10.27;;;4.20;;
68108;SDS011;54893;49.864;19.084;2023-03-23T05:28:47;8.40;;;4.47;;
68108;SDS011;54893;49.864;19.084;2023-03-23T05:33:48;10.27;;;4.97;;
68108;SDS011;54893;49.864;19.084;2023-03-23T05:38:50;10.10;;;4.43;;
68108;SDS011;54893;49.864;19.084;2023-03-23T05:43:51;8.70;;;4.15;;
68108;SDS011;54893;49.864;19.084;2023-03-23T05:48:52;8.05;;;4.10;;
68108;SDS011;54893;49.864;19.084;2023-03-23T05:53:53;9.53;;;4.47;;
68108;SDS011;54893;49.864;19.084;2023-03-23T05:58:54;11.32;;;4.53;;
68108;SDS011;54893;49.864;19.084;2023-03-23T06:03:54;7.18;;;3.90;;
68108;SDS011;54893;49.864;19.084;2023-03-23T06:08:58;7.93;;;4.53;;
68108;SDS011;54893;49.864;19.084;2023-03-23T06:13:59;8.57;;;4.20;;
68108;SDS011;54893;49.864;19.084;2023-03-23T06:18:59;7.45;;;3.70;;
68108;SDS011;54893;49.864;19.084;2023-03-23T06:24:00;7.82;;;3.42;;
68108;SDS011;54893;49.864;19.084;2023-03-23T06:29:01;6.40;;;3.83;;
68108;SDS011;54893;49.864;19.084;2023-03-23T06:34:01;8.90;;;4.37;;
68108;SDS011;54893;49.864;19.084;2023-03-23T06:39:02;11.85;;;3.67;;
68108;SDS011;54893;49.864;19.084;2023-03-23T06:44:06;7.93;;;3.70;;
68108;SDS011;54893;49.864;19.084;2023-03-23T06:49:07;7.28;;;3.85;;
68108;SDS011;54893;49.864;19.084;2023-03-23T06:54:08;10.03;;;4.17;;
68108;SDS011;54893;49.864;19.084;2023-03-23T06:59:08;8.57;;;4.40;;
68108;SDS011;54893;49.864;19.084;2023-03-23T07:04:10;7.93;;;3.65;;
68108;SDS011;54893;49.864;19.084;2023-03-23T07:09:10;8.93;;;4.00;;
68108;SDS011;54893;49.864;19.084;2023-03-23T07:14:10;9.88;;;3.70;;
68108;SDS011;54893;49.864;19.084;2023-03-23T07:19:11;6.70;;;3.33;;
68108;SDS011;54893;49.864;19.084;2023-03-23T07:24:11;6.33;;;3.80;;
68108;SDS011;54893;49.864;19.084;2023-03-23T07:29:16;9.00;;;3.50;;
68108;SDS011;54893;49.864;19.084;2023-03-23T07:34:17;6.60;;;3.60;;
68108;SDS011;54893;49.864;19.084;2023-03-23T07:39:17;7.53;;;3.73;;
68108;SDS011;54893;49.864;19.084;2023-03-23T07:44:17;8.00;;;3.70;;
68108;SDS011;54893;49.864;19.084;2023-03-23T07:49:18;7.03;;;4.10;;
68108;SDS011;54893;49.864;19.084;2023-03-23T07:54:18;8.63;;;4.47;;
68108;SDS011;54893;49.864;19.084;2023-03-23T07:59:19;10.20;;;4.40;;
68108;SDS011;54893;49.864;19.084;2023-03-23T08:04:20;7.97;;;3.72;;
68108;SDS011;54893;49.864;19.084;2023-03-23T08:09:20;8.00;;;3.33;;
68108;SDS011;54893;49.864;19.084;2023-03-23T08:14:21;8.02;;;4.03;;
68108;SDS011;54893;49.864;19.084;2023-03-23T08:19:22;8.87;;;4.17;;
68108;SDS011;54893;49.864;19.084;2023-03-23T08:24:23;7.67;;;3.60;;
68108;SDS011;54893;49.864;19.084;2023-03-23T08:29:23;8.60;;;3.60;;
68108;SDS011;54893;49.864;19.084;2023-03-23T08:34:24;6.57;;;2.72;;
68108;SDS011;54893;49.864;19.084;2023-03-23T08:39:25;7.00;;;2.73;;
68108;SDS011;54893;49.864;19.084;2023-03-23T08:44:25;5.78;;;2.60;;
68108;SDS011;54893;49.864;19.084;2023-03-23T08:49:26;5.53;;;2.57;;
68108;SDS011;54893;49.864;19.084;2023-03-23T08:54:26;7.53;;;2.77;;
68108;SDS011;54893;49.864;19.084;2023-03-23T08:59:27;7.10;;;3.37;;
68108;SDS011;54893;49.864;19.084;2023-03-23T09:04:27;7.90;;;3.37;;
68108;SDS011;54893;49.864;19.084;2023-03-23T09:09:28;6.57;;;3.13;;
68108;SDS011;54893;49.864;19.084;2023-03-23T09:14:28;6.77;;;3.30;;
68108;SDS011;54893;49.864;19.084;2023-03-23T09:19:29;7.85;;;3.50;;
68108;SDS011;54893;49.864;19.084;2023-03-23T09:24:31;7.30;;;3.73;;
68108;SDS011;54893;49.864;19.084;2023-03-23T09:29:31;8.35;;;3.42;;
68108;SDS011;54893;49.864;19.084;2023-03-23T09:34:31;6.57;;;3.87;;
68108;SDS011;54893;49.864;19.084;2023-03-23T09:39:35;8.80;;;3.43;;
68108;SDS011;54893;49.864;19.084;2023-03-23T09:44:39;9.07;;;3.97;;
68108;SDS011;54893;49.864;19.084;2023-03-23T09:54:57;7.63;;;4.20;;
68108;SDS011;54893;49.864;19.084;2023-03-23T10:00:15;8.57;;;3.47;;
68108;SDS011;54893;49.864;19.084;2023-03-23T10:05:37;7.88;;;3.83;;
68108;SDS011;54893;49.864;19.084;2023-03-23T10:10:44;7.57;;;3.53;;
68108;SDS011;54893;49.864;19.084;2023-03-23T10:15:48;7.43;;;3.50;;
68108;SDS011;54893;49.864;19.084;2023-03-23T10:20:59;8.38;;;4.10;;
68108;SDS011;54893;49.864;19.084;2023-03-23T10:31:41;7.22;;;3.45;;
68108;SDS011;54893;49.864;19.084;2023-03-23T10:36:55;7.93;;;3.23;;
68108;SDS011;54893;49.864;19.084;2023-03-23T10:41:55;8.25;;;3.75;;
68108;SDS011;54893;49.864;19.084;2023-03-23T10:46:59;8.43;;;3.63;;
68108;SDS011;54893;49.864;19.084;2023-03-23T10:52:05;7.83;;;3.70;;
68108;SDS011;54893;49.864;19.084;2023-03-23T10:57:23;9.13;;;4.35;;
68108;SDS011;54893;49.864;19.084;2023-03-23T11:02:24;7.37;;;4.20;;
68108;SDS011;54893;49.864;19.084;2023-03-23T11:07:27;9.15;;;3.70;;
68108;SDS011;54893;49.864;19.084;2023-03-23T11:12:32;8.65;;;4.10;;
68108;SDS011;54893;49.864;19.084;2023-03-23T11:17:33;6.97;;;4.07;;
68108;SDS011;54893;49.864;19.084;2023-03-23T11:22:34;8.30;;;3.88;;
68108;SDS011;54893;49.864;19.084;2023-03-23T11:27:37;7.75;;;3.70;;
68108;SDS011;54893;49.864;19.084;2023-03-23T11:32:42;7.90;;;3.85;;
68108;SDS011;54893;49.864;19.084;2023-03-23T11:37:49;7.80;;;4.20;;
68108;SDS011;54893;49.864;19.084;2023-03-23T11:58:40;5.13;;;2.63;;
68108;SDS011;54893;49.864;19.084;2023-03-23T12:09:52;5.22;;;2.42;;
68108;SDS011;54893;49.864;19.084;2023-03-23T12:30:45;5.63;;;2.60;;
68108;SDS011;54893;49.864;19.084;2023-03-23T12:36:06;6.90;;;2.33;;
68108;SDS011;54893;49.864;19.084;2023-03-23T12:57:33;5.63;;;2.13;;
68108;SDS011;54893;49.864;19.084;2023-03-23T13:02:42;5.60;;;2.10;;
68108;SDS011;54893;49.864;19.084;2023-03-23T13:07:48;4.88;;;2.58;;
68108;SDS011;54893;49.864;19.084;2023-03-23T13:12:59;5.65;;;2.45;;
68108;SDS011;54893;49.864;19.084;2023-03-23T13:23:21;8.82;;;2.60;;
68108;SDS011;54893;49.864;19.084;2023-03-23T13:28:28;5.30;;;2.70;;
68108;SDS011;54893;49.864;19.084;2023-03-23T13:33:34;5.43;;;2.10;;
68108;SDS011;54893;49.864;19.084;2023-03-23T13:38:36;4.93;;;2.30;;
68108;SDS011;54893;49.864;19.084;2023-03-23T13:43:39;5.27;;;2.50;;
68108;SDS011;54893;49.864;19.084;2023-03-23T13:49:23;5.03;;;2.50;;
68108;SDS011;54893;49.864;19.084;2023-03-23T14:04:30;5.93;;;2.85;;
68108;SDS011;54893;49.864;19.084;2023-03-23T14:09:36;7.17;;;3.20;;
68108;SDS011;54893;49.864;19.084;2023-03-23T14:14:39;5.50;;;2.67;;
68108;SDS011;54893;49.864;19.084;2023-03-23T14:19:48;6.57;;;2.90;;
68108;SDS011;54893;49.864;19.084;2023-03-23T14:24:58;6.32;;;2.83;;
68108;SDS011;54893;49.864;19.084;2023-03-23T14:30:03;6.13;;;2.83;;
68108;SDS011;54893;49.864;19.084;2023-03-23T14:35:08;6.93;;;2.90;;
68108;SDS011;54893;49.864;19.084;2023-03-23T14:40:15;5.28;;;3.15;;
68108;SDS011;54893;49.864;19.084;2023-03-23T14:45:17;11.98;;;3.55;;
68108;SDS011;54893;49.864;19.084;2023-03-23T14:55:41;6.47;;;3.15;;
68108;SDS011;54893;49.864;19.084;2023-03-23T15:00:45;9.87;;;4.10;;
68108;SDS011;54893;49.864;19.084;2023-03-23T15:05:56;4.93;;;2.60;;
68108;SDS011;54893;49.864;19.084;2023-03-23T15:11:02;6.55;;;2.47;;
68108;SDS011;54893;49.864;19.084;2023-03-23T15:16:11;5.75;;;3.08;;
68108;SDS011;54893;49.864;19.084;2023-03-23T15:21:22;8.45;;;3.05;;
68108;SDS011;54893;49.864;19.084;2023-03-23T15:26:30;10.17;;;3.50;;
68108;SDS011;54893;49.864;19.084;2023-03-23T15:31:48;7.40;;;3.65;;
68108;SDS011;54893;49.864;19.084;2023-03-23T15:36:58;6.78;;;3.50;;
68108;SDS011;54893;49.864;19.084;2023-03-23T15:42:04;7.97;;;4.50;;
68108;SDS011;54893;49.864;19.084;2023-03-23T15:52:15;19.63;;;5.10;;
68108;SDS011;54893;49.864;19.084;2023-03-23T15:57:16;6.78;;;3.80;;
68108;SDS011;54893;49.864;19.084;2023-03-23T16:02:19;10.53;;;4.37;;
68108;SDS011;54893;49.864;19.084;2023-03-23T16:07:22;6.90;;;3.90;;
68108;SDS011;54893;49.864;19.084;2023-03-23T16:12:22;11.48;;;4.28;;
68108;SDS011;54893;49.864;19.084;2023-03-23T16:17:23;11.80;;;5.37;;
68108;SDS011;54893;49.864;19.084;2023-03-23T16:22:23;15.27;;;5.73;;
68108;SDS011;54893;49.864;19.084;2023-03-23T16:27:23;11.70;;;5.25;;
68108;SDS011;54893;49.864;19.084;2023-03-23T16:32:24;9.13;;;4.80;;
68108;SDS011;54893;49.864;19.084;2023-03-23T16:37:24;11.03;;;4.93;;
68108;SDS011;54893;49.864;19.084;2023-03-23T16:42:25;10.33;;;4.50;;
68108;SDS011;54893;49.864;19.084;2023-03-23T16:47:25;10.80;;;5.10;;
68108;SDS011;54893;49.864;19.084;2023-03-23T16:52:25;14.17;;;5.37;;
68108;SDS011;54893;49.864;19.084;2023-03-23T16:57:26;14.47;;;5.50;;
68108;SDS011;54893;49.864;19.084;2023-03-23T17:02:26;10.97;;;5.13;;
68108;SDS011;54893;49.864;19.084;2023-03-23T17:07:27;11.37;;;5.50;;
68108;SDS011;54893;49.864;19.084;2023-03-23T17:12:27;12.00;;;4.97;;
68108;SDS011;54893;49.864;19.084;2023-03-23T17:17:28;10.00;;;4.67;;
68108;SDS011;54893;49.864;19.084;2023-03-23T17:22:28;10.93;;;5.23;;
68108;SDS011;54893;49.864;19.084;2023-03-23T17:27:28;10.17;;;4.50;;
68108;SDS011;54893;49.864;19.084;2023-03-23T17:32:29;11.00;;;4.93;;
68108;SDS011;54893;49.864;19.084;2023-03-23T17:37:29;10.40;;;5.07;;
68108;SDS011;54893;49.864;19.084;2023-03-23T17:42:30;9.93;;;5.43;;
68108;SDS011;54893;49.864;19.084;2023-03-23T17:47:30;10.77;;;5.00;;
68108;SDS011;54893;49.864;19.084;2023-03-23T17:52:32;11.35;;;5.53;;
68108;SDS011;54893;49.864;19.084;2023-03-23T17:57:32;9.23;;;4.80;;
68108;SDS011;54893;49.864;19.084;2023-03-23T18:02:34;11.48;;;5.15;;
68108;SDS011;54893;49.864;19.084;2023-03-23T18:07:35;10.00;;;5.47;;
68108;SDS011;54893;49.864;19.084;2023-03-23T18:12:36;12.82;;;5.30;;
68108;SDS011;54893;49.864;19.084;2023-03-23T18:17:38;12.13;;;5.47;;
68108;SDS011;54893;49.864;19.084;2023-03-23T18:22:38;11.47;;;5.47;;
68108;SDS011;54893;49.864;19.084;2023-03-23T18:27:42;10.80;;;5.73;;
68108;SDS011;54893;49.864;19.084;2023-03-23T18:32:42;11.43;;;5.47;;
68108;SDS011;54893;49.864;19.084;2023-03-23T18:37:42;9.50;;;5.55;;
68108;SDS011;54893;49.864;19.084;2023-03-23T18:42:43;10.07;;;5.57;;
68108;SDS011;54893;49.864;19.084;2023-03-23T18:47:43;12.07;;;5.40;;
68108;SDS011;54893;49.864;19.084;2023-03-23T18:52:44;12.53;;;6.00;;
68108;SDS011;54893;49.864;19.084;2023-03-23T18:57:44;11.13;;;6.13;;
68108;SDS011;54893;49.864;19.084;2023-03-23T19:02:44;15.17;;;5.33;;
68108;SDS011;54893;49.864;19.084;2023-03-23T19:07:46;13.05;;;6.13;;
68108;SDS011;54893;49.864;19.084;2023-03-23T19:12:47;12.33;;;6.10;;
68108;SDS011;54893;49.864;19.084;2023-03-23T19:17:48;13.63;;;6.03;;
68108;SDS011;54893;49.864;19.084;2023-03-23T19:22:54;10.18;;;5.47;;
68108;SDS011;54893;49.864;19.084;2023-03-23T19:27:55;12.03;;;6.20;;
68108;SDS011;54893;49.864;19.084;2023-03-23T19:32:55;11.65;;;6.55;;
68108;SDS011;54893;49.864;19.084;2023-03-23T19:37:55;11.67;;;6.00;;
68108;SDS011;54893;49.864;19.084;2023-03-23T19:42:56;11.97;;;6.30;;
68108;SDS011;54893;49.864;19.084;2023-03-23T19:47:56;13.30;;;5.90;;
68108;SDS011;54893;49.864;19.084;2023-03-23T19:52:57;13.82;;;6.05;;
68108;SDS011;54893;49.864;19.084;2023-03-23T19:57:57;11.07;;;5.60;;
68108;SDS011;54893;49.864;19.084;2023-03-23T20:02:58;11.20;;;5.80;;
68108;SDS011;54893;49.864;19.084;2023-03-23T20:07:58;11.43;;;5.80;;
68108;SDS011;54893;49.864;19.084;2023-03-23T20:12:59;12.47;;;6.33;;
68108;SDS011;54893;49.864;19.084;2023-03-23T20:18:00;12.13;;;5.82;;
68108;SDS011;54893;49.864;19.084;2023-03-23T20:23:00;14.03;;;6.90;;
68108;SDS011;54893;49.864;19.084;2023-03-23T20:28:01;16.60;;;6.40;;
68108;SDS011;54893;49.864;19.084;2023-03-23T20:33:01;12.43;;;6.00;;
68108;SDS011;54893;49.864;19.084;2023-03-23T20:38:01;13.97;;;6.33;;
68108;SDS011;54893;49.864;19.084;2023-03-23T20:43:02;11.83;;;5.67;;
68108;SDS011;54893;49.864;19.084;2023-03-23T20:48:02;14.83;;;7.20;;
68108;SDS011;54893;49.864;19.084;2023-03-23T20:53:04;13.37;;;5.87;;
68108;SDS011;54893;49.864;19.084;2023-03-23T20:58:05;13.27;;;6.20;;
68108;SDS011;54893;49.864;19.084;2023-03-23T21:03:05;13.20;;;5.93;;
68108;SDS011;54893;49.864;19.084;2023-03-23T21:08:07;15.52;;;6.65;;
68108;SDS011;54893;49.864;19.084;2023-03-23T21:13:10;15.52;;;6.30;;
68108;SDS011;54893;49.864;19.084;2023-03-23T21:18:13;12.50;;;6.00;;
68108;SDS011;54893;49.864;19.084;2023-03-23T21:23:13;17.67;;;5.90;;
68108;SDS011;54893;49.864;19.084;2023-03-23T21:28:14;15.23;;;5.97;;
68108;SDS011;54893;49.864;19.084;2023-03-23T21:33:16;11.07;;;5.07;;
68108;SDS011;54893;49.864;19.084;2023-03-23T21:38:16;10.63;;;5.10;;
68108;SDS011;54893;49.864;19.084;2023-03-23T21:43:18;11.55;;;4.93;;
68108;SDS011;54893;49.864;19.084;2023-03-23T21:48:26;15.40;;;6.80;;
68108;SDS011;54893;49.864;19.084;2023-03-23T21:53:26;13.17;;;6.30;;
68108;SDS011;54893;49.864;19.084;2023-03-23T21:58:29;17.00;;;6.88;;
68108;SDS011;54893;49.864;19.084;2023-03-23T22:03:30;15.70;;;7.03;;
68108;SDS011;54893;49.864;19.084;2023-03-23T22:08:31;13.63;;;6.75;;
68108;SDS011;54893;49.864;19.084;2023-03-23T22:13:32;12.50;;;6.30;;
68108;SDS011;54893;49.864;19.084;2023-03-23T22:18:34;14.02;;;5.70;;
68108;SDS011;54893;49.864;19.084;2023-03-23T22:23:36;16.95;;;6.97;;
68108;SDS011;54893;49.864;19.084;2023-03-23T22:28:38;14.25;;;6.25;;
68108;SDS011;54893;49.864;19.084;2023-03-23T22:33:39;15.87;;;7.03;;
68108;SDS011;54893;49.864;19.084;2023-03-23T22:38:41;17.57;;;8.13;;
68108;SDS011;54893;49.864;19.084;2023-03-23T22:43:44;14.23;;;7.00;;
68108;SDS011;54893;49.864;19.084;2023-03-23T22:48:45;15.75;;;6.95;;
68108;SDS011;54893;49.864;19.084;2023-03-23T22:53:45;15.17;;;6.30;;
68108;SDS011;54893;49.864;19.084;2023-03-23T22:58:46;13.67;;;6.13;;
68108;SDS011;54893;49.864;19.084;2023-03-23T23:03:47;15.63;;;6.03;;
68108;SDS011;54893;49.864;19.084;2023-03-23T23:08:48;12.43;;;6.47;;
68108;SDS011;54893;49.864;19.084;2023-03-23T23:13:49;15.13;;;6.33;;
68108;SDS011;54893;49.864;19.084;2023-03-23T23:18:50;14.88;;;6.15;;
68108;SDS011;54893;49.864;19.084;2023-03-23T23:23:51;12.73;;;6.28;;
68108;SDS011;54893;49.864;19.084;2023-03-23T23:28:52;14.88;;;6.10;;
68108;SDS011;54893;49.864;19.084;2023-03-23T23:33:54;14.63;;;6.13;;
68108;SDS011;54893;49.864;19.084;2023-03-23T23:38:55;16.35;;;5.88;;
68108;SDS011;54893;49.864;19.084;2023-03-23T23:43:57;13.07;;;6.40;;
68108;SDS011;54893;49.864;19.084;2023-03-23T23:48:58;12.57;;;6.15;;
68108;SDS011;54893;49.864;19.084;2023-03-23T23:53:59;12.43;;;6.72;;
68108;SDS011;54893;49.864;19.084;2023-03-23T23:59:00;11.93;;;5.95;;
